Time;durP1;ratioP1;P1;durP2;ratioP2;P2;SDS_P1;SDS_P2;PMS_P1;PMS_P2;Temp;Humidity;BMP_temperature;BMP_pressure;BME280_temperature;BME280_humidity;BME280_pressure;Samples;Min_cycle;Max_cycle;Signal;HPM_P1;HPM_P2
2022/03/15 00:00:56;;;;;;;18.00;10.73;;;1.10;73.60;;;;;;5048665;28;20270;-69
2022/03/15 00:03:22;;;;;;;20.20;11.03;;;1.10;73.80;;;;;;5050133;28;20278;-71
2022/03/15 00:05:48;;;;;;;19.83;9.50;;;1.00;73.90;;;;;;5052372;28;20195;-69
2022/03/15 00:08:15;;;;;;;14.60;7.73;;;1.00;74.00;;;;;;5053525;28;20854;-70
2022/03/15 00:10:41;;;;;;;16.00;9.77;;;1.00;74.30;;;;;;5048871;28;20180;-70
2022/03/15 00:13:07;;;;;;;19.27;10.27;;;1.00;74.40;;;;;;5052500;28;20187;-69
2022/03/15 00:15:34;;;;;;;16.67;8.60;;;0.90;74.40;;;;;;5053315;28;22000;-70
2022/03/15 00:17:59;;;;;;;19.13;9.10;;;0.90;74.10;;;;;;5051299;28;20179;-70
2022/03/15 00:20:25;;;;;;;18.83;9.23;;;0.90;74.30;;;;;;5045933;28;20218;-70
2022/03/15 00:22:55;;;;;;;16.67;8.90;;;0.90;74.30;;;;;;5042872;28;20682;-70
2022/03/15 00:25:21;;;;;;;14.47;8.63;;;0.90;74.40;;;;;;5049678;28;20187;-70
2022/03/15 00:27:51;;;;;;;14.23;7.83;;;0.90;74.40;;;;;;5045376;28;20811;-70
2022/03/15 00:30:18;;;;;;;16.90;8.37;;;0.80;75.00;;;;;;5056207;28;20211;-70
2022/03/15 00:32:45;;;;;;;15.57;9.33;;;0.80;75.20;;;;;;5052501;28;20186;-70
2022/03/15 00:35:22;;;;;;;20.93;9.63;;;0.70;75.10;;;;;;5055390;28;20242;-70
2022/03/15 00:37:51;;;;;;;23.97;9.67;;;0.70;75.10;;;;;;5055222;28;20261;-69
2022/03/15 00:40:18;;;;;;;18.43;9.03;;;0.70;75.10;;;;;;5057074;28;21394;-69
2022/03/15 00:42:46;;;;;;;16.17;8.73;;;0.70;75.30;;;;;;5054428;28;20284;-70
2022/03/15 00:45:12;;;;;;;16.13;6.83;;;0.60;75.10;;;;;;5055487;28;20664;-70
2022/03/15 00:47:38;;;;;;;11.70;7.77;;;0.60;74.90;;;;;;5053526;28;20183;-70
2022/03/15 00:50:04;;;;;;;14.67;7.73;;;0.50;75.20;;;;;;5054763;28;20260;-69
2022/03/15 00:52:30;;;;;;;15.10;7.73;;;0.50;75.20;;;;;;5054535;28;20172;-69
2022/03/15 00:54:57;;;;;;;13.30;8.10;;;0.50;75.20;;;;;;5050767;28;20222;-69
2022/03/15 00:57:23;;;;;;;17.03;7.77;;;0.40;75.30;;;;;;5056276;28;20317;-69
2022/03/15 00:59:48;;;;;;;16.80;9.17;;;0.40;75.40;;;;;;5049619;28;20287;-70
2022/03/15 01:02:14;;;;;;;17.10;8.00;;;0.40;75.50;;;;;;5053945;28;20186;-70
2022/03/15 01:04:40;;;;;;;10.20;7.20;;;0.40;75.60;;;;;;5051520;28;20676;-69
2022/03/15 01:07:05;;;;;;;13.13;7.97;;;0.40;75.70;;;;;;5057774;28;20187;-71
2022/03/15 01:09:31;;;;;;;18.83;8.33;;;0.30;75.80;;;;;;5060304;28;20442;-68
2022/03/15 01:11:59;;;;;;;14.47;9.50;;;0.30;75.80;;;;;;5053955;28;20821;-69
2022/03/15 01:14:25;;;;;;;11.40;7.80;;;0.30;75.90;;;;;;5051412;28;20699;-70
2022/03/15 01:16:51;;;;;;;19.07;8.87;;;0.30;76.00;;;;;;5049939;28;20180;-70
2022/03/15 01:19:16;;;;;;;18.30;9.40;;;0.30;76.00;;;;;;5049723;28;20696;-69
2022/03/15 01:21:42;;;;;;;19.60;9.57;;;0.30;76.20;;;;;;5053983;28;20183;-69
2022/03/15 01:24:11;;;;;;;20.83;8.70;;;0.20;76.40;;;;;;5056008;28;20195;-69
2022/03/15 01:26:39;;;;;;;20.07;8.13;;;0.30;76.40;;;;;;5051792;28;20666;-69
2022/03/15 01:29:06;;;;;;;15.50;8.13;;;0.20;76.80;;;;;;5052450;28;20191;-70
2022/03/15 01:31:32;;;;;;;13.50;8.50;;;0.20;76.90;;;;;;5050055;28;20206;-69
2022/03/15 01:33:58;;;;;;;15.60;8.23;;;0.20;76.70;;;;;;5050401;28;20215;-69
2022/03/15 01:36:23;;;;;;;16.73;7.63;;;0.20;76.80;;;;;;5050723;28;20187;-69
2022/03/15 01:38:52;;;;;;;16.30;8.70;;;0.20;76.80;;;;;;5051478;28;20265;-69
2022/03/15 01:41:18;;;;;;;17.20;7.83;;;0.20;76.60;;;;;;5050820;28;20200;-69
2022/03/15 01:43:46;;;;;;;18.20;8.87;;;0.20;76.80;;;;;;5056088;28;20182;-70
2022/03/15 01:46:12;;;;;;;11.80;8.03;;;0.10;76.80;;;;;;5054929;28;20183;-69
2022/03/15 01:48:39;;;;;;;16.50;8.40;;;0.10;76.90;;;;;;5050625;28;20183;-69
2022/03/15 01:51:05;;;;;;;9.53;7.07;;;0.10;77.30;;;;;;5051718;28;20686;-68
2022/03/15 01:53:32;;;;;;;14.40;7.33;;;0.10;77.20;;;;;;5050119;28;20209;-69
2022/03/15 01:55:58;;;;;;;14.23;6.47;;;0.10;77.40;;;;;;5052951;28;20262;-68
2022/03/15 01:58:25;;;;;;;10.60;5.87;;;0.00;77.60;;;;;;5048820;28;20693;-68
2022/03/15 02:00:51;;;;;;;10.93;6.50;;;0.00;77.40;;;;;;5049196;28;20544;-68
2022/03/15 02:03:17;;;;;;;11.53;7.40;;;0.00;77.70;;;;;;5054477;28;20186;-70
2022/03/15 02:05:44;;;;;;;11.63;6.83;;;0.00;77.80;;;;;;5047857;28;20192;-69
2022/03/15 02:08:12;;;;;;;11.63;7.23;;;0.00;77.70;;;;;;5052246;28;20179;-69
2022/03/15 02:10:38;;;;;;;11.10;7.67;;;-0.10;77.80;;;;;;5053995;28;20172;-70
2022/03/15 02:13:04;;;;;;;10.10;7.17;;;-0.10;77.80;;;;;;5050905;28;20618;-70
2022/03/15 02:15:30;;;;;;;12.57;7.10;;;-0.10;77.80;;;;;;5052104;28;20235;-70
2022/03/15 02:17:57;;;;;;;10.07;6.43;;;-0.10;77.70;;;;;;5056137;28;20683;-69
2022/03/15 02:20:22;;;;;;;13.57;7.27;;;-0.10;77.70;;;;;;5050639;28;20187;-70
2022/03/15 02:22:48;;;;;;;8.77;5.87;;;-0.20;77.80;;;;;;5047645;28;20192;-70
2022/03/15 02:25:14;;;;;;;9.77;6.87;;;-0.20;77.80;;;;;;5055272;28;20218;-69
2022/03/15 02:27:40;;;;;;;8.03;6.07;;;-0.20;78.00;;;;;;5054382;28;20681;-69
2022/03/15 02:30:07;;;;;;;13.80;7.87;;;-0.30;78.10;;;;;;5048671;28;20236;-69
2022/03/15 02:32:34;;;;;;;13.37;6.83;;;-0.30;78.10;;;;;;5049216;28;20209;-70
2022/03/15 02:35:00;;;;;;;16.13;6.80;;;-0.30;78.10;;;;;;5051323;28;20272;-70
2022/03/15 02:37:25;;;;;;;5.80;5.33;;;-0.30;78.20;;;;;;5054331;28;20191;-70
2022/03/15 02:39:51;;;;;;;11.77;6.67;;;-0.30;78.40;;;;;;5048134;28;20187;-69
2022/03/15 02:42:18;;;;;;;21.47;6.37;;;-0.30;78.40;;;;;;5048035;28;20192;-69
2022/03/15 02:44:44;;;;;;;8.30;5.53;;;-0.40;78.40;;;;;;5054976;28;20212;-70
2022/03/15 02:47:10;;;;;;;11.87;6.33;;;-0.40;78.40;;;;;;5054127;28;20183;-69
2022/03/15 02:49:36;;;;;;;11.47;6.20;;;-0.40;78.40;;;;;;5051853;28;20198;-69
2022/03/15 02:52:02;;;;;;;19.90;7.60;;;-0.40;78.50;;;;;;5048603;28;20179;-69
2022/03/15 02:54:28;;;;;;;10.10;6.70;;;-0.40;78.50;;;;;;5060504;28;20241;-69
2022/03/15 02:56:54;;;;;;;10.07;7.00;;;-0.40;78.40;;;;;;5051599;28;20219;-68
2022/03/15 02:59:20;;;;;;;10.40;6.77;;;-0.40;78.40;;;;;;5055335;28;20180;-69
2022/03/15 03:01:48;;;;;;;12.23;7.13;;;-0.40;78.40;;;;;;5049167;28;20290;-69
2022/03/15 03:04:15;;;;;;;12.43;7.07;;;-0.40;78.40;;;;;;5055371;28;20187;-70
2022/03/15 03:06:42;;;;;;;11.67;6.63;;;-0.40;78.60;;;;;;5051755;28;20796;-70
2022/03/15 03:09:08;;;;;;;17.30;7.63;;;-0.40;78.70;;;;;;5055182;28;20187;-69
2022/03/15 03:11:34;;;;;;;10.87;6.23;;;-0.50;78.40;;;;;;5046390;28;20183;-70
2022/03/15 03:14:00;;;;;;;11.07;6.67;;;-0.50;78.50;;;;;;5046588;28;20210;-70
2022/03/15 03:16:28;;;;;;;8.17;6.40;;;-0.50;78.70;;;;;;5047383;28;20179;-69
2022/03/15 03:18:57;;;;;;;12.87;6.83;;;-0.60;78.40;;;;;;5050773;28;20237;-70
2022/03/15 03:21:25;;;;;;;9.83;6.80;;;-0.50;78.40;;;;;;5043098;28;20183;-71
2022/03/15 03:23:53;;;;;;;11.07;6.67;;;-0.60;78.40;;;;;;5044701;28;20187;-69
2022/03/15 03:26:19;;;;;;;15.70;7.43;;;-0.60;78.30;;;;;;5050721;28;20179;-71
2022/03/15 03:28:45;;;;;;;15.53;8.10;;;-0.60;78.40;;;;;;5055442;28;20657;-70
2022/03/15 03:31:11;;;;;;;8.53;6.47;;;-0.60;78.50;;;;;;5044654;28;20186;-70
2022/03/15 03:33:38;;;;;;;16.07;8.87;;;-0.70;78.50;;;;;;5051744;28;20306;-70
2022/03/15 03:36:09;;;;;;;17.53;7.83;;;-0.70;78.50;;;;;;5052199;28;20266;-70
2022/03/15 03:38:35;;;;;;;15.87;8.07;;;-0.70;78.50;;;;;;5052766;28;20178;-70
2022/03/15 03:41:02;;;;;;;16.53;8.57;;;-0.70;78.80;;;;;;5050244;28;20683;-70
2022/03/15 03:43:29;;;;;;;13.30;7.70;;;-0.70;78.70;;;;;;5054619;28;20638;-70
2022/03/15 03:45:55;;;;;;;20.33;7.40;;;-0.70;78.90;;;;;;5049115;28;20187;-71
2022/03/15 03:48:23;;;;;;;10.97;7.07;;;-0.70;79.00;;;;;;5054531;28;20206;-69
2022/03/15 03:50:48;;;;;;;12.33;7.43;;;-0.70;79.10;;;;;;5050323;28;20264;-70
2022/03/15 03:53:15;;;;;;;13.47;7.83;;;-0.70;78.90;;;;;;5051347;28;20212;-69
2022/03/15 03:55:41;;;;;;;10.97;7.43;;;-0.80;79.00;;;;;;5051295;28;20400;-69
2022/03/15 03:58:07;;;;;;;14.43;8.03;;;-0.80;79.10;;;;;;5052447;28;20698;-70
2022/03/15 04:00:32;;;;;;;13.37;6.80;;;-0.80;79.30;;;;;;5047242;28;20188;-69
2022/03/15 04:03:00;;;;;;;8.40;5.77;;;-0.80;79.30;;;;;;5053044;28;20316;-69
2022/03/15 04:05:30;;;;;;;8.63;6.50;;;-0.80;79.50;;;;;;5054808;28;20239;-69
2022/03/15 04:07:59;;;;;;;13.77;6.30;;;-0.90;79.50;;;;;;5054740;28;20192;-69
2022/03/15 04:10:26;;;;;;;15.10;6.87;;;-0.90;79.60;;;;;;5051525;28;20183;-70
2022/03/15 04:12:52;;;;;;;13.47;7.50;;;-0.90;79.50;;;;;;5056124;28;20652;-70
2022/03/15 04:15:18;;;;;;;13.10;6.47;;;-1.00;79.70;;;;;;5056279;28;20210;-70
2022/03/15 04:17:44;;;;;;;16.40;6.10;;;-1.00;79.50;;;;;;5050585;28;20708;-71
2022/03/15 04:20:10;;;;;;;8.90;6.10;;;-1.00;79.60;;;;;;5054466;28;20191;-69
2022/03/15 04:22:35;;;;;;;11.37;6.63;;;-1.00;79.80;;;;;;5053766;28;20661;-69
2022/03/15 04:25:01;;;;;;;9.23;4.80;;;-1.10;79.70;;;;;;5057528;28;20195;-69
2022/03/15 04:27:28;;;;;;;8.73;5.33;;;-1.10;79.80;;;;;;5056023;28;20537;-70
2022/03/15 04:29:55;;;;;;;10.60;5.37;;;-1.20;79.80;;;;;;5051049;28;20218;-69
2022/03/15 04:32:20;;;;;;;5.33;4.83;;;-1.10;79.80;;;;;;5054749;28;20988;-69
2022/03/15 04:34:46;;;;;;;7.33;5.80;;;-1.20;80.20;;;;;;5053256;28;20298;-70
2022/03/15 04:37:12;;;;;;;9.33;6.07;;;-1.20;80.20;;;;;;5048334;28;20186;-70
2022/03/15 04:39:38;;;;;;;6.90;5.10;;;-1.20;80.10;;;;;;5056499;28;20295;-69
2022/03/15 04:42:05;;;;;;;8.70;4.87;;;-1.30;79.60;;;;;;5054922;28;20686;-68
2022/03/15 04:44:31;;;;;;;8.07;4.40;;;-1.30;80.10;;;;;;5055781;28;20266;-69
2022/03/15 04:46:56;;;;;;;10.60;5.93;;;-1.30;80.10;;;;;;5050542;28;20179;-69
2022/03/15 04:49:22;;;;;;;5.23;3.90;;;-1.30;80.30;;;;;;5049819;28;20186;-68
2022/03/15 04:51:48;;;;;;;4.33;4.03;;;-1.40;80.30;;;;;;5052428;28;20660;-69
2022/03/15 04:54:14;;;;;;;6.87;4.23;;;-1.40;80.20;;;;;;5052634;28;20264;-72
2022/03/15 04:56:40;;;;;;;7.90;4.83;;;-1.40;80.20;;;;;;5052602;28;20184;-69
2022/03/15 04:59:05;;;;;;;6.27;5.33;;;-1.40;80.20;;;;;;5055772;28;20215;-69
2022/03/15 05:01:31;;;;;;;7.00;4.80;;;-1.40;80.40;;;;;;5053597;28;21863;-70
2022/03/15 05:03:57;;;;;;;8.33;3.93;;;-1.40;80.40;;;;;;5055370;28;20184;-69
2022/03/15 05:06:23;;;;;;;5.67;4.20;;;-1.40;80.40;;;;;;5048315;28;20209;-72
2022/03/15 05:08:48;;;;;;;4.60;4.27;;;-1.40;80.40;;;;;;5051846;28;20743;-70
2022/03/15 05:11:15;;;;;;;5.17;4.50;;;-1.40;80.60;;;;;;5052421;28;20271;-68
2022/03/15 05:13:46;;;;;;;4.77;4.40;;;-1.40;80.60;;;;;;5052182;28;20211;-69
2022/03/15 05:16:21;;;;;;;16.80;5.83;;;-1.40;80.60;;;;;;5051296;28;20195;-69
2022/03/15 05:18:52;;;;;;;4.77;4.07;;;-1.40;80.70;;;;;;5055435;28;20191;-68
2022/03/15 05:21:19;;;;;;;7.70;4.27;;;-1.40;81.00;;;;;;5050138;28;20278;-69
2022/03/15 05:23:45;;;;;;;11.37;5.33;;;-1.40;81.10;;;;;;5047005;28;20226;-69
2022/03/15 05:26:12;;;;;;;4.97;4.33;;;-1.40;81.10;;;;;;5047209;28;20449;-70
2022/03/15 05:28:38;;;;;;;6.90;4.67;;;-1.30;81.10;;;;;;5043682;28;20194;-69
2022/03/15 05:31:03;;;;;;;11.47;4.63;;;-1.30;81.20;;;;;;5044519;28;20935;-70
2022/03/15 05:33:29;;;;;;;7.03;5.47;;;-1.30;81.10;;;;;;5045497;28;20933;-70
2022/03/15 05:35:56;;;;;;;6.30;4.43;;;-1.30;81.00;;;;;;5052458;28;20228;-70
2022/03/15 05:38:23;;;;;;;9.63;5.63;;;-1.30;81.00;;;;;;5050687;28;20183;-69
2022/03/15 05:40:49;;;;;;;8.90;4.70;;;-1.30;81.40;;;;;;5052660;28;20198;-70
2022/03/15 05:43:15;;;;;;;5.93;4.50;;;-1.20;81.40;;;;;;5049850;28;20583;-69
2022/03/15 05:45:41;;;;;;;7.87;5.97;;;-1.20;81.50;;;;;;5045754;28;20195;-68
2022/03/15 05:48:07;;;;;;;10.53;5.83;;;-1.20;81.30;;;;;;5051609;28;20190;-68
2022/03/15 05:50:33;;;;;;;5.00;4.63;;;-1.10;81.20;;;;;;5046112;28;20633;-68
2022/03/15 05:53:04;;;;;;;11.23;7.03;;;-1.10;81.10;;;;;;5052007;28;20182;-70
2022/03/15 05:55:32;;;;;;;11.43;6.30;;;-1.00;81.10;;;;;;5053233;28;20217;-70
2022/03/15 05:57:58;;;;;;;10.10;5.73;;;-1.00;81.10;;;;;;5053287;28;20665;-68
2022/03/15 06:00:24;;;;;;;16.43;7.60;;;-1.00;81.00;;;;;;5055439;28;20188;-69
2022/03/15 06:02:51;;;;;;;14.70;5.20;;;-0.90;81.00;;;;;;5051524;28;20236;-69
2022/03/15 06:05:16;;;;;;;10.37;6.57;;;-0.80;80.90;;;;;;5050179;28;20281;-68
2022/03/15 06:07:50;;;;;;;16.83;6.90;;;-0.80;80.90;;;;;;5048619;28;20273;-68
2022/03/15 06:10:18;;;;;;;12.13;5.33;;;-0.70;80.70;;;;;;5057276;28;20217;-69
2022/03/15 06:12:45;;;;;;;8.73;5.90;;;-0.70;80.70;;;;;;5048799;28;20179;-68
2022/03/15 06:15:11;;;;;;;9.93;6.40;;;-0.60;80.60;;;;;;5049942;28;20235;-68
2022/03/15 06:18:04;;;;;;;9.70;6.23;;;-0.50;80.50;;;;;;5045472;28;20760;-68
2022/03/15 06:20:29;;;;;;;6.93;6.27;;;-0.40;80.30;;;;;;5051378;28;20584;-68
2022/03/15 06:22:55;;;;;;;9.10;5.40;;;-0.40;80.30;;;;;;5048808;28;20179;-69
2022/03/15 06:25:21;;;;;;;6.87;6.20;;;-0.30;80.30;;;;;;5050133;28;20192;-71
2022/03/15 06:27:49;;;;;;;10.30;6.57;;;-0.20;80.10;;;;;;5055059;28;20183;-68
2022/03/15 06:30:16;;;;;;;9.70;7.07;;;-0.10;80.00;;;;;;5052525;28;20220;-69
2022/03/15 06:32:42;;;;;;;11.87;7.30;;;0.00;79.90;;;;;;5047007;28;20647;-69
2022/03/15 06:35:10;;;;;;;10.13;6.53;;;0.00;79.70;;;;;;5050232;28;20705;-71
2022/03/15 06:37:44;;;;;;;8.10;6.20;;;0.10;79.60;;;;;;5048551;28;20214;-69
2022/03/15 06:40:10;;;;;;;8.80;6.47;;;0.20;79.30;;;;;;5047532;28;20198;-68
2022/03/15 06:42:38;;;;;;;11.93;6.33;;;0.20;78.80;;;;;;5053883;28;20176;-68
2022/03/15 06:45:06;;;;;;;11.50;7.33;;;0.30;78.60;;;;;;5052927;28;20184;-68
2022/03/15 06:47:32;;;;;;;11.00;6.37;;;0.40;78.50;;;;;;5052675;28;20286;-67
2022/03/15 06:49:58;;;;;;;9.33;6.37;;;0.50;78.40;;;;;;5046955;28;20266;-67
2022/03/15 06:52:23;;;;;;;9.60;6.73;;;0.60;78.30;;;;;;5053281;28;20194;-68
2022/03/15 06:54:49;;;;;;;12.07;7.50;;;0.60;78.00;;;;;;5055245;28;20210;-68
2022/03/15 06:57:15;;;;;;;17.10;7.50;;;0.70;77.80;;;;;;5055568;28;20664;-68
2022/03/15 06:59:41;;;;;;;12.77;6.53;;;0.80;77.60;;;;;;5053836;28;20241;-68
2022/03/15 07:02:07;;;;;;;9.27;6.33;;;0.90;77.50;;;;;;5055685;28;20629;-68
2022/03/15 07:04:32;;;;;;;13.70;6.97;;;1.00;77.30;;;;;;5055549;28;20179;-68
2022/03/15 07:06:58;;;;;;;12.13;6.97;;;1.10;77.40;;;;;;5053929;28;20195;-68
2022/03/15 07:09:24;;;;;;;9.33;6.77;;;1.20;77.30;;;;;;5052473;28;20183;-68
2022/03/15 07:11:50;;;;;;;11.43;7.03;;;1.30;77.20;;;;;;5055179;28;20195;-67
2022/03/15 07:14:16;;;;;;;15.13;7.87;;;1.40;77.20;;;;;;5053711;28;20326;-68
2022/03/15 07:16:42;;;;;;;12.00;7.23;;;1.50;76.90;;;;;;5051142;28;20183;-66
2022/03/15 07:19:07;;;;;;;9.00;6.40;;;1.60;76.60;;;;;;5055220;28;20278;-67
2022/03/15 07:21:33;;;;;;;11.10;6.80;;;1.70;76.20;;;;;;5050819;28;20265;-67
2022/03/15 07:23:59;;;;;;;7.93;6.03;;;1.80;75.60;;;;;;5051177;28;20187;-67
2022/03/15 07:26:25;;;;;;;11.90;6.73;;;1.90;75.30;;;;;;5056409;28;20246;-67
2022/03/15 07:28:50;;;;;;;10.20;6.97;;;2.00;74.90;;;;;;5054541;28;20179;-68
2022/03/15 07:31:16;;;;;;;14.17;8.90;;;2.10;74.60;;;;;;5053954;28;20666;-68
2022/03/15 07:33:41;;;;;;;17.43;7.07;;;2.20;74.60;;;;;;5052151;28;20225;-68
2022/03/15 07:36:07;;;;;;;11.07;6.30;;;2.40;74.40;;;;;;5051640;28;20674;-68
2022/03/15 07:38:33;;;;;;;13.30;8.27;;;2.50;74.10;;;;;;5052579;28;20186;-69
2022/03/15 07:41:01;;;;;;;15.37;8.33;;;2.60;73.90;;;;;;5054191;28;20258;-70
2022/03/15 07:43:27;;;;;;;14.00;7.60;;;2.70;73.40;;;;;;5056122;28;20657;-69
2022/03/15 07:45:53;;;;;;;15.50;9.03;;;2.80;73.10;;;;;;5051354;28;20183;-69
2022/03/15 07:48:19;;;;;;;20.00;9.17;;;3.00;72.90;;;;;;5051423;28;20203;-69
2022/03/15 07:50:45;;;;;;;13.93;9.50;;;3.10;73.00;;;;;;5055178;28;20175;-69
2022/03/15 07:53:11;;;;;;;12.47;8.90;;;3.20;72.70;;;;;;5052782;28;20541;-69
2022/03/15 07:55:38;;;;;;;15.73;9.97;;;3.40;73.10;;;;;;5053198;28;20302;-69
2022/03/15 07:58:04;;;;;;;16.47;9.60;;;3.60;72.40;;;;;;5047370;28;20943;-67
2022/03/15 08:00:31;;;;;;;11.63;8.07;;;3.70;71.70;;;;;;5052929;28;20702;-68
2022/03/15 08:02:56;;;;;;;12.67;8.63;;;3.90;71.70;;;;;;5048230;28;20270;-68
2022/03/15 08:05:22;;;;;;;13.17;9.37;;;4.10;71.30;;;;;;5052558;28;20205;-68
2022/03/15 08:07:48;;;;;;;20.53;9.47;;;4.30;70.60;;;;;;5052505;28;20183;-68
2022/03/15 08:10:15;;;;;;;11.20;8.23;;;4.70;70.40;;;;;;5052192;28;20236;-68
2022/03/15 08:12:41;;;;;;;15.07;9.17;;;5.10;69.50;;;;;;5053998;28;20196;-69
2022/03/15 08:15:08;;;;;;;11.83;7.87;;;5.70;68.40;;;;;;5051454;28;20219;-68
2022/03/15 08:17:35;;;;;;;14.23;9.77;;;6.60;67.60;;;;;;5058803;28;20182;-67
2022/03/15 08:20:01;;;;;;;13.33;9.53;;;7.40;65.80;;;;;;5047862;28;20305;-67
2022/03/15 08:22:30;;;;;;;14.83;9.40;;;8.20;64.90;;;;;;5049483;28;20175;-69
2022/03/15 08:24:56;;;;;;;17.77;11.23;;;9.10;64.50;;;;;;5051460;28;20191;-67
2022/03/15 08:27:23;;;;;;;17.73;11.00;;;10.20;63.50;;;;;;5054200;28;20280;-67
2022/03/15 08:29:48;;;;;;;20.60;12.00;;;11.10;60.40;;;;;;5050386;28;20188;-67
2022/03/15 08:32:14;;;;;;;22.33;12.57;;;12.00;58.20;;;;;;5047291;28;20183;-69
2022/03/15 08:34:42;;;;;;;23.70;13.40;;;12.70;56.70;;;;;;5052055;28;20215;-67
2022/03/15 08:37:08;;;;;;;26.60;13.57;;;13.40;57.20;;;;;;5050299;28;20206;-69
2022/03/15 08:39:34;;;;;;;30.45;15.07;;;14.20;54.20;;;;;;5048086;28;20213;-69
2022/03/15 08:42:00;;;;;;;27.10;14.95;;;14.90;53.50;;;;;;5049319;28;20266;-69
2022/03/15 08:44:26;;;;;;;22.40;14.60;;;15.60;53.30;;;;;;5047286;28;20202;-68
2022/03/15 08:46:52;;;;;;;27.85;15.40;;;16.20;51.60;;;;;;5044246;28;20179;-67
2022/03/15 08:49:19;;;;;;;26.25;15.82;;;16.80;51.10;;;;;;5044900;28;20210;-69
2022/03/15 08:51:46;;;;;;;27.80;17.75;;;17.40;50.20;;;;;;5053671;28;20247;-70
2022/03/15 08:54:12;;;;;;;32.38;17.23;;;17.60;48.70;;;;;;5054063;28;20211;-67
2022/03/15 08:56:41;;;;;;;27.38;17.13;;;17.90;48.40;;;;;;5054268;28;20218;-68
2022/03/15 08:59:08;;;;;;;29.10;19.10;;;18.40;48.40;;;;;;5056049;28;20949;-68
2022/03/15 09:01:34;;;;;;;39.33;19.40;;;18.90;48.20;;;;;;5052596;28;20448;-68
2022/03/15 09:04:01;;;;;;;32.15;20.35;;;19.40;47.80;;;;;;5049252;28;20275;-68
2022/03/15 09:06:27;;;;;;;30.83;18.73;;;19.90;47.00;;;;;;5048768;28;20189;-68
2022/03/15 09:08:53;;;;;;;32.63;20.60;;;20.40;46.20;;;;;;5049545;28;20180;-67
2022/03/15 09:11:18;;;;;;;31.85;19.67;;;20.80;45.70;;;;;;5052580;28;20198;-68
2022/03/15 09:13:44;;;;;;;28.95;19.48;;;21.30;44.90;;;;;;5053956;28;20288;-66
2022/03/15 09:16:12;;;;;;;35.72;21.20;;;21.60;44.80;;;;;;5056513;28;20187;-68
2022/03/15 09:18:38;;;;;;;32.83;21.20;;;21.50;43.60;;;;;;5056728;28;20184;-67
2022/03/15 09:21:06;;;;;;;30.38;20.08;;;21.60;43.50;;;;;;5051369;28;20263;-68
2022/03/15 09:23:33;;;;;;;35.17;20.02;;;21.30;43.10;;;;;;5051957;28;20190;-68
2022/03/15 09:25:59;;;;;;;28.88;19.20;;;20.90;43.00;;;;;;5054516;28;20187;-68
2022/03/15 09:28:25;;;;;;;25.25;19.00;;;20.70;44.10;;;;;;5052501;28;20646;-68
2022/03/15 09:30:50;;;;;;;27.48;19.15;;;21.00;43.70;;;;;;5048774;28;20184;-68
2022/03/15 09:33:16;;;;;;;27.80;18.10;;;21.20;42.60;;;;;;5053086;28;20179;-68
2022/03/15 09:35:42;;;;;;;29.65;17.90;;;21.40;42.60;;;;;;5050106;28;20314;-68
2022/03/15 09:38:09;;;;;;;27.67;18.00;;;21.80;43.40;;;;;;5051812;28;20631;-68
2022/03/15 09:40:37;;;;;;;24.10;16.17;;;22.50;44.20;;;;;;5053526;28;20226;-66
2022/03/15 09:43:05;;;;;;;31.05;18.58;;;23.30;44.00;;;;;;5048258;28;20183;-67
2022/03/15 09:45:35;;;;;;;28.70;18.90;;;24.00;41.20;;;;;;5046916;28;20191;-69
2022/03/15 09:48:15;;;;;;;23.45;15.98;;;24.20;39.50;;;;;;5049617;28;20183;-67
2022/03/15 09:50:42;;;;;;;18.90;14.95;;;24.40;39.80;;;;;;5048538;28;20198;-68
2022/03/15 09:53:09;;;;;;;24.35;16.05;;;24.80;41.30;;;;;;5055592;28;20184;-67
2022/03/15 09:55:37;;;;;;;31.13;15.77;;;25.20;39.70;;;;;;5049183;28;20227;-68
2022/03/15 09:58:03;;;;;;;27.10;17.90;;;25.60;41.20;;;;;;5042807;28;20934;-68
2022/03/15 10:00:30;;;;;;;25.30;18.45;;;26.10;41.10;;;;;;5045261;28;20255;-69
2022/03/15 10:02:55;;;;;;;26.02;17.35;;;26.70;39.40;;;;;;5048526;28;20807;-68
2022/03/15 10:05:21;;;;;;;27.17;18.23;;;26.70;40.00;;;;;;5049976;28;20209;-68
2022/03/15 10:07:48;;;;;;;22.13;17.75;;;26.70;38.40;;;;;;5046271;28;20179;-68
2022/03/15 10:10:15;;;;;;;23.40;17.00;;;26.80;39.10;;;;;;5054044;28;20176;-68
2022/03/15 10:12:41;;;;;;;31.90;17.98;;;26.70;38.10;;;;;;5049847;28;20401;-67
2022/03/15 10:15:19;;;;;;;26.95;16.92;;;26.40;39.30;;;;;;5054441;28;20210;-68
2022/03/15 10:17:55;;;;;;;20.80;15.95;;;26.40;39.70;;;;;;5046854;28;20217;-68
2022/03/15 10:20:28;;;;;;;21.25;14.98;;;26.80;39.60;;;;;;5054017;28;20316;-68
2022/03/15 10:23:02;;;;;;;22.42;15.85;;;27.30;38.00;;;;;;5050634;28;20180;-67
2022/03/15 10:25:30;;;;;;;25.08;15.48;;;27.70;39.10;;;;;;5047585;28;20689;-68
2022/03/15 10:28:02;;;;;;;24.20;13.13;;;28.10;35.80;;;;;;5053235;28;20183;-68
2022/03/15 10:30:30;;;;;;;15.60;13.13;;;28.40;37.60;;;;;;5051682;28;20270;-69
2022/03/15 10:32:56;;;;;;;27.70;14.75;;;28.70;36.40;;;;;;5052971;28;20183;-68
2022/03/15 10:35:28;;;;;;;24.17;14.82;;;29.00;36.50;;;;;;5053596;28;21346;-68
2022/03/15 10:37:55;;;;;;;16.85;13.57;;;29.10;37.50;;;;;;5050981;28;20720;-69
2022/03/15 10:40:37;;;;;;;18.27;13.63;;;29.20;37.00;;;;;;5047709;28;20176;-69
2022/03/15 10:43:08;;;;;;;15.15;13.10;;;29.40;36.60;;;;;;5049469;28;20240;-68
2022/03/15 10:45:36;;;;;;;14.68;10.73;;;29.80;37.00;;;;;;5050768;28;20337;-68
2022/03/15 10:48:11;;;;;;;7.63;6.95;;;30.10;36.10;;;;;;5044982;28;20657;-68
2022/03/15 10:50:37;;;;;;;8.30;6.88;;;30.40;33.00;;;;;;5047541;28;20190;-69
2022/03/15 10:53:25;;;;;;;7.45;6.85;;;30.30;34.60;;;;;;5054265;28;20195;-68
2022/03/15 10:56:08;;;;;;;8.30;7.45;;;30.10;30.80;;;;;;5048800;28;20200;-69
2022/03/15 10:58:34;;;;;;;13.63;7.90;;;29.60;35.10;;;;;;5048092;28;20314;-68
2022/03/15 11:01:00;;;;;;;7.75;5.38;;;29.50;35.50;;;;;;5049893;28;20262;-68
2022/03/15 11:03:29;;;;;;;5.82;5.50;;;29.60;33.30;;;;;;5050849;28;20209;-69
2022/03/15 11:06:02;;;;;;;7.72;6.82;;;29.00;33.50;;;;;;5045151;28;20218;-68
2022/03/15 11:08:28;;;;;;;7.40;6.10;;;28.60;34.80;;;;;;5043794;28;20683;-69
2022/03/15 11:10:54;;;;;;;6.57;5.50;;;28.70;32.70;;;;;;5049417;28;20179;-68
2022/03/15 11:13:28;;;;;;;6.30;5.47;;;28.30;33.20;;;;;;5045067;28;20179;-67
2022/03/15 11:15:56;;;;;;;6.40;5.90;;;28.20;34.40;;;;;;5047844;28;20653;-69
2022/03/15 11:18:28;;;;;;;5.90;5.25;;;28.60;35.60;;;;;;5044830;28;20263;-74
2022/03/15 11:20:54;;;;;;;5.53;5.13;;;28.90;35.60;;;;;;5051952;28;20174;-74
2022/03/15 11:23:22;;;;;;;5.50;5.10;;;29.20;34.70;;;;;;5055277;28;20172;-73
2022/03/15 11:26:02;;;;;;;8.88;5.30;;;29.60;33.20;;;;;;5048729;28;20178;-73
2022/03/15 11:28:33;;;;;;;9.15;5.03;;;29.70;33.60;;;;;;5052557;28;20271;-73
2022/03/15 11:31:00;;;;;;;5.38;4.63;;;29.70;33.30;;;;;;5054109;28;20225;-73
2022/03/15 11:33:27;;;;;;;4.40;4.10;;;29.30;33.40;;;;;;5051719;28;20725;-73
2022/03/15 11:35:53;;;;;;;4.18;3.78;;;29.00;33.80;;;;;;5056671;28;20665;-73
2022/03/15 11:38:20;;;;;;;4.43;4.07;;;28.30;32.60;;;;;;5054147;28;20195;-75
2022/03/15 11:40:50;;;;;;;4.25;3.95;;;27.50;32.10;;;;;;5056399;28;20197;-74
2022/03/15 11:43:50;;;;;;;4.07;3.63;;;26.80;33.60;;;;;;5050948;28;20175;-74
2022/03/15 11:46:27;;;;;;;3.00;2.80;;;26.60;33.70;;;;;;5057817;28;20692;-74
2022/03/15 11:49:01;;;;;;;3.28;3.10;;;26.60;35.10;;;;;;5055161;28;20202;-74
2022/03/15 11:51:40;;;;;;;3.95;3.75;;;26.70;34.70;;;;;;5051891;28;20234;-73
2022/03/15 11:54:30;;;;;;;3.28;3.08;;;26.90;34.40;;;;;;5060203;28;20676;-73
2022/03/15 11:57:21;;;;;;;4.60;2.88;;;27.20;34.50;;;;;;5056114;28;20247;-74
2022/03/15 11:59:48;;;;;;;3.25;2.45;;;27.50;33.30;;;;;;5052995;28;20184;-71
2022/03/15 12:02:27;;;;;;;2.22;2.13;;;27.30;32.70;;;;;;5046332;28;20187;-71
2022/03/15 12:04:53;;;;;;;3.13;2.17;;;27.00;34.00;;;;;;5050545;28;20206;-71
2022/03/15 12:07:45;;;;;;;2.83;2.55;;;27.00;34.30;;;;;;5050605;28;20750;-70
2022/03/15 12:10:11;;;;;;;2.65;2.55;;;27.00;33.40;;;;;;5047845;28;20196;-71
2022/03/15 12:12:41;;;;;;;5.10;2.63;;;27.20;33.70;;;;;;5052115;28;20621;-71
2022/03/15 12:15:15;;;;;;;2.70;2.50;;;27.30;33.30;;;;;;5048903;28;20792;-70
2022/03/15 12:17:42;;;;;;;2.60;2.50;;;27.10;33.50;;;;;;5047489;28;20176;-72
2022/03/15 12:20:18;;;;;;;3.60;3.40;;;27.00;34.40;;;;;;5047889;28;20249;-71
2022/03/15 12:22:47;;;;;;;2.17;1.98;;;27.10;33.60;;;;;;5045883;28;20167;-71
2022/03/15 12:25:17;;;;;;;4.00;2.47;;;27.10;32.80;;;;;;5048926;28;21175;-72
2022/03/15 12:27:51;;;;;;;2.58;2.33;;;27.00;33.60;;;;;;5051557;28;20179;-71
2022/03/15 12:30:30;;;;;;;6.63;2.40;;;26.80;33.10;;;;;;5052344;28;20267;-71
2022/03/15 12:32:57;;;;;;;2.50;2.00;;;26.50;31.10;;;;;;5057464;28;20270;-71
2022/03/15 12:35:29;;;;;;;2.15;2.03;;;26.00;32.60;;;;;;5059906;28;20179;-71
2022/03/15 12:38:10;;;;;;;2.20;2.10;;;25.70;33.90;;;;;;5056641;28;20207;-73
2022/03/15 12:40:45;;;;;;;2.25;2.15;;;25.10;31.40;;;;;;5054613;28;20191;-70
2022/03/15 12:43:24;;;;;;;2.22;2.13;;;24.20;32.40;;;;;;5051328;28;20179;-70